sensor_id;sensor_type;location;lat;lon;timestamp;temperature;humidity
11152;DHT22;5630;49.342;10.802;2023-05-10T00:00:13;14.90;99.90
11152;DHT22;5630;49.342;10.802;2023-05-10T00:02:39;14.90;99.90
11152;DHT22;5630;49.342;10.802;2023-05-10T00:05:05;14.90;99.90
11152;DHT22;5630;49.342;10.802;2023-05-10T00:07:31;14.90;99.90
11152;DHT22;5630;49.342;10.802;2023-05-10T00:09:56;15.00;99.90
11152;DHT22;5630;49.342;10.802;2023-05-10T00:12:22;14.90;99.90
11152;DHT22;5630;49.342;10.802;2023-05-10T00:14:47;14.90;99.90
11152;DHT22;5630;49.342;10.802;2023-05-10T00:17:13;14.90;99.90
11152;DHT22;5630;49.342;10.802;2023-05-10T00:19:38;14.90;99.90
11152;DHT22;5630;49.342;10.802;2023-05-10T00:22:04;14.90;99.90
11152;DHT22;5630;49.342;10.802;2023-05-10T00:24:30;14.90;99.90
11152;DHT22;5630;49.342;10.802;2023-05-10T00:26:55;14.90;99.90
11152;DHT22;5630;49.342;10.802;2023-05-10T00:29:21;14.90;99.90
11152;DHT22;5630;49.342;10.802;2023-05-10T00:31:46;14.90;99.90
11152;DHT22;5630;49.342;10.802;2023-05-10T00:34:12;14.90;99.90
11152;DHT22;5630;49.342;10.802;2023-05-10T00:36:37;14.90;99.90
11152;DHT22;5630;49.342;10.802;2023-05-10T00:39:03;14.80;99.90
11152;DHT22;5630;49.342;10.802;2023-05-10T00:41:29;14.80;99.90
11152;DHT22;5630;49.342;10.802;2023-05-10T00:43:58;14.80;99.90
11152;DHT22;5630;49.342;10.802;2023-05-10T00:46:23;14.80;99.90
11152;DHT22;5630;49.342;10.802;2023-05-10T00:48:49;14.80;99.90
11152;DHT22;5630;49.342;10.802;2023-05-10T00:51:15;14.80;99.90
11152;DHT22;5630;49.342;10.802;2023-05-10T00:53:41;14.80;99.90
11152;DHT22;5630;49.342;10.802;2023-05-10T00:56:06;14.80;99.90
11152;DHT22;5630;49.342;10.802;2023-05-10T00:58:32;14.80;99.90
11152;DHT22;5630;49.342;10.802;2023-05-10T01:00:58;14.80;99.90
11152;DHT22;5630;49.342;10.802;2023-05-10T01:03:25;14.80;99.90
11152;DHT22;5630;49.342;10.802;2023-05-10T01:05:50;14.80;99.90
11152;DHT22;5630;49.342;10.802;2023-05-10T01:08:16;14.70;99.90
11152;DHT22;5630;49.342;10.802;2023-05-10T01:10:43;14.70;99.90
11152;DHT22;5630;49.342;10.802;2023-05-10T01:13:09;14.80;99.90
11152;DHT22;5630;49.342;10.802;2023-05-10T01:15:35;14.70;99.90
11152;DHT22;5630;49.342;10.802;2023-05-10T01:18:02;14.70;99.90
11152;DHT22;5630;49.342;10.802;2023-05-10T01:20:35;14.70;99.90
11152;DHT22;5630;49.342;10.802;2023-05-10T01:23:11;14.70;99.90
11152;DHT22;5630;49.342;10.802;2023-05-10T01:29:01;14.60;99.90
11152;DHT22;5630;49.342;10.802;2023-05-10T01:34:27;14.60;99.90
11152;DHT22;5630;49.342;10.802;2023-05-10T01:37:02;14.60;99.90
11152;DHT22;5630;49.342;10.802;2023-05-10T01:42:23;14.50;99.90
11152;DHT22;5630;49.342;10.802;2023-05-10T01:45:06;14.50;99.90
11152;DHT22;5630;49.342;10.802;2023-05-10T01:47:38;14.50;99.90
11152;DHT22;5630;49.342;10.802;2023-05-10T01:50:27;14.50;99.90
11152;DHT22;5630;49.342;10.802;2023-05-10T01:52:55;14.40;99.90
11152;DHT22;5630;49.342;10.802;2023-05-10T01:55:24;14.40;99.90
11152;DHT22;5630;49.342;10.802;2023-05-10T01:57:55;14.40;99.90
11152;DHT22;5630;49.342;10.802;2023-05-10T02:00:23;14.30;99.90
11152;DHT22;5630;49.342;10.802;2023-05-10T02:02:49;14.30;99.90
11152;DHT22;5630;49.342;10.802;2023-05-10T02:05:17;14.40;99.90
11152;DHT22;5630;49.342;10.802;2023-05-10T02:07:44;14.40;99.90
11152;DHT22;5630;49.342;10.802;2023-05-10T02:10:11;14.30;99.90
11152;DHT22;5630;49.342;10.802;2023-05-10T02:12:41;14.20;99.90
11152;DHT22;5630;49.342;10.802;2023-05-10T02:15:07;14.20;99.90
11152;DHT22;5630;49.342;10.802;2023-05-10T02:17:35;14.30;99.90
11152;DHT22;5630;49.342;10.802;2023-05-10T02:20:03;14.30;99.90
11152;DHT22;5630;49.342;10.802;2023-05-10T02:22:30;14.30;99.90
11152;DHT22;5630;49.342;10.802;2023-05-10T02:24:58;14.30;99.90
11152;DHT22;5630;49.342;10.802;2023-05-10T02:27:25;14.30;99.90
11152;DHT22;5630;49.342;10.802;2023-05-10T02:29:53;14.30;99.90
11152;DHT22;5630;49.342;10.802;2023-05-10T02:32:19;14.20;99.90
11152;DHT22;5630;49.342;10.802;2023-05-10T02:34:47;14.20;99.90
11152;DHT22;5630;49.342;10.802;2023-05-10T02:37:19;14.10;99.90
11152;DHT22;5630;49.342;10.802;2023-05-10T02:39:47;14.10;99.90
11152;DHT22;5630;49.342;10.802;2023-05-10T02:42:19;14.10;99.90
11152;DHT22;5630;49.342;10.802;2023-05-10T02:44:48;14.10;99.90
11152;DHT22;5630;49.342;10.802;2023-05-10T02:47:16;14.10;99.90
11152;DHT22;5630;49.342;10.802;2023-05-10T02:49:42;14.10;99.90
11152;DHT22;5630;49.342;10.802;2023-05-10T02:52:08;14.00;99.90
11152;DHT22;5630;49.342;10.802;2023-05-10T02:54:39;14.00;99.90
11152;DHT22;5630;49.342;10.802;2023-05-10T02:57:07;14.00;99.90
11152;DHT22;5630;49.342;10.802;2023-05-10T02:59:33;13.90;99.90
11152;DHT22;5630;49.342;10.802;2023-05-10T03:01:59;14.00;99.90
11152;DHT22;5630;49.342;10.802;2023-05-10T03:04:25;13.90;99.90
11152;DHT22;5630;49.342;10.802;2023-05-10T03:06:51;13.80;99.90
11152;DHT22;5630;49.342;10.802;2023-05-10T03:09:18;13.80;99.90
11152;DHT22;5630;49.342;10.802;2023-05-10T03:11:49;13.80;99.90
11152;DHT22;5630;49.342;10.802;2023-05-10T03:20:06;13.80;99.90
11152;DHT22;5630;49.342;10.802;2023-05-10T03:22:39;13.70;99.90
11152;DHT22;5630;49.342;10.802;2023-05-10T03:25:07;13.70;99.90
11152;DHT22;5630;49.342;10.802;2023-05-10T03:27:35;13.70;99.90
11152;DHT22;5630;49.342;10.802;2023-05-10T03:30:02;13.70;99.90
11152;DHT22;5630;49.342;10.802;2023-05-10T03:32:29;13.70;99.90
11152;DHT22;5630;49.342;10.802;2023-05-10T03:34:55;13.70;99.90
11152;DHT22;5630;49.342;10.802;2023-05-10T03:37:21;13.70;99.90
11152;DHT22;5630;49.342;10.802;2023-05-10T03:39:46;13.70;99.90
11152;DHT22;5630;49.342;10.802;2023-05-10T03:42:12;13.60;99.90
11152;DHT22;5630;49.342;10.802;2023-05-10T03:44:40;13.60;99.90
11152;DHT22;5630;49.342;10.802;2023-05-10T03:47:06;13.60;99.90
11152;DHT22;5630;49.342;10.802;2023-05-10T03:49:32;13.60;99.90
11152;DHT22;5630;49.342;10.802;2023-05-10T03:51:57;13.60;99.90
11152;DHT22;5630;49.342;10.802;2023-05-10T03:54:23;13.60;99.90
11152;DHT22;5630;49.342;10.802;2023-05-10T03:56:48;13.60;99.90
11152;DHT22;5630;49.342;10.802;2023-05-10T03:59:14;13.60;99.90
11152;DHT22;5630;49.342;10.802;2023-05-10T04:01:39;13.50;99.90
11152;DHT22;5630;49.342;10.802;2023-05-10T04:04:05;13.50;99.90
11152;DHT22;5630;49.342;10.802;2023-05-10T04:06:30;13.50;99.90
11152;DHT22;5630;49.342;10.802;2023-05-10T04:08:57;13.50;99.90
11152;DHT22;5630;49.342;10.802;2023-05-10T04:11:25;13.50;99.90
11152;DHT22;5630;49.342;10.802;2023-05-10T04:13:51;13.40;99.90
11152;DHT22;5630;49.342;10.802;2023-05-10T04:16:16;13.40;99.90
11152;DHT22;5630;49.342;10.802;2023-05-10T04:18:42;13.40;99.90
11152;DHT22;5630;49.342;10.802;2023-05-10T04:21:11;13.40;99.90
11152;DHT22;5630;49.342;10.802;2023-05-10T04:23:37;13.30;99.90
11152;DHT22;5630;49.342;10.802;2023-05-10T04:26:03;13.30;99.90
11152;DHT22;5630;49.342;10.802;2023-05-10T04:28:29;13.30;99.90
11152;DHT22;5630;49.342;10.802;2023-05-10T04:31:04;13.30;99.90
11152;DHT22;5630;49.342;10.802;2023-05-10T04:33:30;13.20;99.90
11152;DHT22;5630;49.342;10.802;2023-05-10T04:35:56;13.20;99.90
11152;DHT22;5630;49.342;10.802;2023-05-10T04:38:21;13.20;99.90
11152;DHT22;5630;49.342;10.802;2023-05-10T04:40:47;13.20;99.90
11152;DHT22;5630;49.342;10.802;2023-05-10T04:43:13;13.10;99.90
11152;DHT22;5630;49.342;10.802;2023-05-10T04:45:38;13.10;99.90
11152;DHT22;5630;49.342;10.802;2023-05-10T04:48:04;13.10;99.90
11152;DHT22;5630;49.342;10.802;2023-05-10T04:50:30;13.00;99.90
11152;DHT22;5630;49.342;10.802;2023-05-10T04:52:55;13.00;99.90
11152;DHT22;5630;49.342;10.802;2023-05-10T04:55:21;13.10;99.90
11152;DHT22;5630;49.342;10.802;2023-05-10T04:57:46;13.00;99.90
11152;DHT22;5630;49.342;10.802;2023-05-10T05:00:12;13.00;99.90
11152;DHT22;5630;49.342;10.802;2023-05-10T05:02:38;13.00;99.90
11152;DHT22;5630;49.342;10.802;2023-05-10T05:05:04;13.00;99.90
11152;DHT22;5630;49.342;10.802;2023-05-10T05:07:29;13.00;99.90
11152;DHT22;5630;49.342;10.802;2023-05-10T05:09:56;13.10;99.90
11152;DHT22;5630;49.342;10.802;2023-05-10T05:12:21;13.10;99.90
11152;DHT22;5630;49.342;10.802;2023-05-10T05:14:47;13.10;99.90
11152;DHT22;5630;49.342;10.802;2023-05-10T05:17:12;13.10;99.90
11152;DHT22;5630;49.342;10.802;2023-05-10T05:19:38;13.10;99.90
11152;DHT22;5630;49.342;10.802;2023-05-10T05:22:03;13.20;99.90
11152;DHT22;5630;49.342;10.802;2023-05-10T05:24:35;13.20;99.90
11152;DHT22;5630;49.342;10.802;2023-05-10T05:27:01;13.10;99.90
11152;DHT22;5630;49.342;10.802;2023-05-10T05:29:27;13.20;99.90
11152;DHT22;5630;49.342;10.802;2023-05-10T05:31:52;13.20;99.90
11152;DHT22;5630;49.342;10.802;2023-05-10T05:34:18;13.20;99.90
11152;DHT22;5630;49.342;10.802;2023-05-10T05:36:45;13.20;99.90
11152;DHT22;5630;49.342;10.802;2023-05-10T05:39:11;13.30;99.90
11152;DHT22;5630;49.342;10.802;2023-05-10T05:41:36;13.30;99.90
11152;DHT22;5630;49.342;10.802;2023-05-10T05:44:02;13.30;99.90
11152;DHT22;5630;49.342;10.802;2023-05-10T05:46:27;13.40;99.90
11152;DHT22;5630;49.342;10.802;2023-05-10T05:48:53;13.40;99.90
11152;DHT22;5630;49.342;10.802;2023-05-10T05:51:19;13.40;99.90
11152;DHT22;5630;49.342;10.802;2023-05-10T05:53:44;13.50;99.90
11152;DHT22;5630;49.342;10.802;2023-05-10T05:56:10;13.50;99.90
11152;DHT22;5630;49.342;10.802;2023-05-10T05:58:36;13.50;99.90
11152;DHT22;5630;49.342;10.802;2023-05-10T06:01:01;13.50;99.90
11152;DHT22;5630;49.342;10.802;2023-05-10T06:03:27;13.60;99.90
11152;DHT22;5630;49.342;10.802;2023-05-10T06:05:52;13.60;99.90
11152;DHT22;5630;49.342;10.802;2023-05-10T06:08:18;13.70;99.90
11152;DHT22;5630;49.342;10.802;2023-05-10T06:10:43;13.60;99.90
11152;DHT22;5630;49.342;10.802;2023-05-10T06:13:09;13.60;99.90
11152;DHT22;5630;49.342;10.802;2023-05-10T06:15:35;13.70;99.90
11152;DHT22;5630;49.342;10.802;2023-05-10T06:18:01;13.70;99.90
11152;DHT22;5630;49.342;10.802;2023-05-10T06:20:26;13.70;99.90
11152;DHT22;5630;49.342;10.802;2023-05-10T06:22:52;13.80;99.90
11152;DHT22;5630;49.342;10.802;2023-05-10T06:25:17;13.70;99.90
11152;DHT22;5630;49.342;10.802;2023-05-10T06:27:43;13.70;99.90
11152;DHT22;5630;49.342;10.802;2023-05-10T06:30:09;13.70;99.90
11152;DHT22;5630;49.342;10.802;2023-05-10T06:32:35;13.70;99.90
11152;DHT22;5630;49.342;10.802;2023-05-10T06:35:01;13.70;99.90
11152;DHT22;5630;49.342;10.802;2023-05-10T06:37:26;13.70;99.90
11152;DHT22;5630;49.342;10.802;2023-05-10T06:39:52;13.70;99.90
11152;DHT22;5630;49.342;10.802;2023-05-10T06:42:17;13.80;99.90
11152;DHT22;5630;49.342;10.802;2023-05-10T06:44:43;13.80;99.90
11152;DHT22;5630;49.342;10.802;2023-05-10T06:47:09;13.90;99.90
11152;DHT22;5630;49.342;10.802;2023-05-10T06:49:34;13.90;99.90
11152;DHT22;5630;49.342;10.802;2023-05-10T06:52:00;13.90;99.90
11152;DHT22;5630;49.342;10.802;2023-05-10T06:54:26;14.10;99.90
11152;DHT22;5630;49.342;10.802;2023-05-10T06:56:51;14.10;99.90
11152;DHT22;5630;49.342;10.802;2023-05-10T06:59:17;14.10;99.90
11152;DHT22;5630;49.342;10.802;2023-05-10T07:01:44;14.10;99.90
11152;DHT22;5630;49.342;10.802;2023-05-10T07:04:10;14.10;99.90
11152;DHT22;5630;49.342;10.802;2023-05-10T07:06:35;14.20;99.90
11152;DHT22;5630;49.342;10.802;2023-05-10T07:09:01;14.30;99.90
11152;DHT22;5630;49.342;10.802;2023-05-10T07:11:27;14.30;99.90
11152;DHT22;5630;49.342;10.802;2023-05-10T07:13:52;14.40;99.90
11152;DHT22;5630;49.342;10.802;2023-05-10T07:16:19;14.50;99.90
11152;DHT22;5630;49.342;10.802;2023-05-10T07:18:44;14.60;99.90
11152;DHT22;5630;49.342;10.802;2023-05-10T07:21:10;14.50;99.90
11152;DHT22;5630;49.342;10.802;2023-05-10T07:23:35;14.50;99.90
11152;DHT22;5630;49.342;10.802;2023-05-10T07:26:01;14.50;99.90
11152;DHT22;5630;49.342;10.802;2023-05-10T07:28:27;14.40;99.90
11152;DHT22;5630;49.342;10.802;2023-05-10T07:30:53;14.30;99.90
11152;DHT22;5630;49.342;10.802;2023-05-10T07:33:18;14.40;99.90
11152;DHT22;5630;49.342;10.802;2023-05-10T07:35:44;14.40;99.90
11152;DHT22;5630;49.342;10.802;2023-05-10T07:38:10;14.40;99.90
11152;DHT22;5630;49.342;10.802;2023-05-10T07:40:39;14.40;99.90
11152;DHT22;5630;49.342;10.802;2023-05-10T07:43:04;14.50;99.90
11152;DHT22;5630;49.342;10.802;2023-05-10T07:45:30;14.60;99.90
11152;DHT22;5630;49.342;10.802;2023-05-10T07:47:55;14.50;99.90
11152;DHT22;5630;49.342;10.802;2023-05-10T07:50:21;14.60;99.90
11152;DHT22;5630;49.342;10.802;2023-05-10T07:52:47;14.70;99.90
11152;DHT22;5630;49.342;10.802;2023-05-10T07:55:13;14.70;99.90
11152;DHT22;5630;49.342;10.802;2023-05-10T07:57:38;14.80;99.90
11152;DHT22;5630;49.342;10.802;2023-05-10T08:00:05;14.70;99.90
11152;DHT22;5630;49.342;10.802;2023-05-10T08:02:31;14.70;99.90
11152;DHT22;5630;49.342;10.802;2023-05-10T08:04:57;14.60;99.90
11152;DHT22;5630;49.342;10.802;2023-05-10T08:07:24;14.50;99.90
11152;DHT22;5630;49.342;10.802;2023-05-10T08:09:50;14.40;99.90
11152;DHT22;5630;49.342;10.802;2023-05-10T08:12:15;14.30;99.90
11152;DHT22;5630;49.342;10.802;2023-05-10T08:14:41;14.10;99.90
11152;DHT22;5630;49.342;10.802;2023-05-10T08:17:06;14.10;99.90
11152;DHT22;5630;49.342;10.802;2023-05-10T08:19:32;14.10;99.90
11152;DHT22;5630;49.342;10.802;2023-05-10T08:21:57;14.10;99.90
11152;DHT22;5630;49.342;10.802;2023-05-10T08:24:23;14.20;99.90
11152;DHT22;5630;49.342;10.802;2023-05-10T08:26:49;14.40;99.90
11152;DHT22;5630;49.342;10.802;2023-05-10T08:29:14;14.70;99.90
11152;DHT22;5630;49.342;10.802;2023-05-10T08:31:40;14.90;99.90
11152;DHT22;5630;49.342;10.802;2023-05-10T08:34:06;14.90;99.90
11152;DHT22;5630;49.342;10.802;2023-05-10T08:36:31;15.10;99.90
11152;DHT22;5630;49.342;10.802;2023-05-10T08:38:57;15.30;99.90
11152;DHT22;5630;49.342;10.802;2023-05-10T08:41:24;15.60;99.90
11152;DHT22;5630;49.342;10.802;2023-05-10T08:43:54;15.80;99.90
11152;DHT22;5630;49.342;10.802;2023-05-10T08:46:21;16.00;99.90
11152;DHT22;5630;49.342;10.802;2023-05-10T08:48:48;16.30;99.90
11152;DHT22;5630;49.342;10.802;2023-05-10T08:51:18;16.50;99.90
11152;DHT22;5630;49.342;10.802;2023-05-10T08:53:44;16.50;99.90
11152;DHT22;5630;49.342;10.802;2023-05-10T08:56:10;16.40;99.90
11152;DHT22;5630;49.342;10.802;2023-05-10T08:58:36;16.40;99.90
11152;DHT22;5630;49.342;10.802;2023-05-10T09:01:03;16.60;99.90
11152;DHT22;5630;49.342;10.802;2023-05-10T09:03:29;16.60;99.90
11152;DHT22;5630;49.342;10.802;2023-05-10T09:05:55;16.90;99.90
11152;DHT22;5630;49.342;10.802;2023-05-10T09:08:23;17.20;99.90
11152;DHT22;5630;49.342;10.802;2023-05-10T09:10:51;17.50;99.90
11152;DHT22;5630;49.342;10.802;2023-05-10T09:13:19;17.80;99.90
11152;DHT22;5630;49.342;10.802;2023-05-10T09:15:48;17.90;99.90
11152;DHT22;5630;49.342;10.802;2023-05-10T09:18:14;18.00;99.90
11152;DHT22;5630;49.342;10.802;2023-05-10T09:20:40;17.80;99.90
11152;DHT22;5630;49.342;10.802;2023-05-10T09:23:06;17.50;99.90
11152;DHT22;5630;49.342;10.802;2023-05-10T09:25:32;17.20;99.90
11152;DHT22;5630;49.342;10.802;2023-05-10T09:27:59;17.00;99.90
11152;DHT22;5630;49.342;10.802;2023-05-10T09:30:29;16.80;99.90
11152;DHT22;5630;49.342;10.802;2023-05-10T09:32:57;16.50;99.90
11152;DHT22;5630;49.342;10.802;2023-05-10T09:35:25;16.50;99.90
11152;DHT22;5630;49.342;10.802;2023-05-10T09:37:53;16.30;99.90
11152;DHT22;5630;49.342;10.802;2023-05-10T09:40:24;16.20;99.90
11152;DHT22;5630;49.342;10.802;2023-05-10T09:43:04;16.20;99.90
11152;DHT22;5630;49.342;10.802;2023-05-10T09:45:32;16.20;99.90
11152;DHT22;5630;49.342;10.802;2023-05-10T09:47:59;16.20;99.90
11152;DHT22;5630;49.342;10.802;2023-05-10T09:50:27;16.30;99.90
11152;DHT22;5630;49.342;10.802;2023-05-10T09:55:22;16.90;99.90
11152;DHT22;5630;49.342;10.802;2023-05-10T09:57:49;17.00;99.90
11152;DHT22;5630;49.342;10.802;2023-05-10T10:00:19;17.00;99.90
11152;DHT22;5630;49.342;10.802;2023-05-10T10:02:54;16.80;99.90
11152;DHT22;5630;49.342;10.802;2023-05-10T10:05:21;16.80;99.90
11152;DHT22;5630;49.342;10.802;2023-05-10T10:07:46;16.50;99.90
11152;DHT22;5630;49.342;10.802;2023-05-10T10:10:14;16.40;99.90
11152;DHT22;5630;49.342;10.802;2023-05-10T10:12:41;16.30;99.90
11152;DHT22;5630;49.342;10.802;2023-05-10T10:15:08;16.20;99.90
11152;DHT22;5630;49.342;10.802;2023-05-10T10:17:35;16.20;99.90
11152;DHT22;5630;49.342;10.802;2023-05-10T10:20:03;16.00;99.90
11152;DHT22;5630;49.342;10.802;2023-05-10T10:22:28;15.90;99.90
11152;DHT22;5630;49.342;10.802;2023-05-10T10:24:54;15.90;99.90
11152;DHT22;5630;49.342;10.802;2023-05-10T10:27:30;15.80;99.90
11152;DHT22;5630;49.342;10.802;2023-05-10T10:30:21;15.80;99.90
11152;DHT22;5630;49.342;10.802;2023-05-10T10:33:06;15.80;99.90
11152;DHT22;5630;49.342;10.802;2023-05-10T10:35:35;15.80;99.90
11152;DHT22;5630;49.342;10.802;2023-05-10T10:38:01;15.80;99.90
11152;DHT22;5630;49.342;10.802;2023-05-10T10:40:28;15.80;99.90
11152;DHT22;5630;49.342;10.802;2023-05-10T10:42:55;15.80;99.90
11152;DHT22;5630;49.342;10.802;2023-05-10T10:45:22;15.80;99.90
11152;DHT22;5630;49.342;10.802;2023-05-10T10:47:48;15.70;99.90
11152;DHT22;5630;49.342;10.802;2023-05-10T10:50:15;15.80;99.90
11152;DHT22;5630;49.342;10.802;2023-05-10T10:52:44;15.90;99.90
11152;DHT22;5630;49.342;10.802;2023-05-10T10:55:12;15.80;99.90
11152;DHT22;5630;49.342;10.802;2023-05-10T11:00:29;15.90;99.90
11152;DHT22;5630;49.342;10.802;2023-05-10T11:03:12;15.90;99.90
11152;DHT22;5630;49.342;10.802;2023-05-10T11:05:51;16.00;99.90
11152;DHT22;5630;49.342;10.802;2023-05-10T11:08:30;16.10;99.90
11152;DHT22;5630;49.342;10.802;2023-05-10T11:13:41;16.40;99.90
11152;DHT22;5630;49.342;10.802;2023-05-10T11:19:03;16.70;99.90
11152;DHT22;5630;49.342;10.802;2023-05-10T11:21:32;16.70;99.90
11152;DHT22;5630;49.342;10.802;2023-05-10T11:24:00;16.70;99.90
11152;DHT22;5630;49.342;10.802;2023-05-10T11:26:31;16.60;99.90
11152;DHT22;5630;49.342;10.802;2023-05-10T11:28:56;16.50;99.90
11152;DHT22;5630;49.342;10.802;2023-05-10T11:31:23;16.40;99.90
11152;DHT22;5630;49.342;10.802;2023-05-10T11:33:56;16.50;99.90
11152;DHT22;5630;49.342;10.802;2023-05-10T11:36:35;16.60;99.90
11152;DHT22;5630;49.342;10.802;2023-05-10T11:39:01;16.70;99.90
11152;DHT22;5630;49.342;10.802;2023-05-10T11:41:28;16.80;99.90
11152;DHT22;5630;49.342;10.802;2023-05-10T11:43:55;16.70;99.90
11152;DHT22;5630;49.342;10.802;2023-05-10T11:46:24;16.70;99.90
11152;DHT22;5630;49.342;10.802;2023-05-10T11:48:54;16.70;99.90
11152;DHT22;5630;49.342;10.802;2023-05-10T11:51:21;16.60;99.90
11152;DHT22;5630;49.342;10.802;2023-05-10T11:53:48;16.50;99.90
11152;DHT22;5630;49.342;10.802;2023-05-10T11:56:14;16.50;99.90
11152;DHT22;5630;49.342;10.802;2023-05-10T11:58:39;16.30;99.90
11152;DHT22;5630;49.342;10.802;2023-05-10T12:01:08;16.30;99.90
11152;DHT22;5630;49.342;10.802;2023-05-10T12:03:34;16.30;99.90
11152;DHT22;5630;49.342;10.802;2023-05-10T12:06:01;16.30;99.90
11152;DHT22;5630;49.342;10.802;2023-05-10T12:08:27;16.30;99.90
11152;DHT22;5630;49.342;10.802;2023-05-10T12:11:03;16.20;99.90
11152;DHT22;5630;49.342;10.802;2023-05-10T12:13:29;16.20;99.90
11152;DHT22;5630;49.342;10.802;2023-05-10T12:15:57;16.30;99.90
11152;DHT22;5630;49.342;10.802;2023-05-10T12:18:24;16.30;99.90
11152;DHT22;5630;49.342;10.802;2023-05-10T12:20:53;16.30;99.90
11152;DHT22;5630;49.342;10.802;2023-05-10T12:23:21;16.20;99.90
11152;DHT22;5630;49.342;10.802;2023-05-10T12:25:47;16.20;99.90
11152;DHT22;5630;49.342;10.802;2023-05-10T12:28:13;16.40;99.90
11152;DHT22;5630;49.342;10.802;2023-05-10T12:30:38;16.50;99.90
11152;DHT22;5630;49.342;10.802;2023-05-10T12:33:13;16.60;99.90
11152;DHT22;5630;49.342;10.802;2023-05-10T12:35:53;16.80;99.90
11152;DHT22;5630;49.342;10.802;2023-05-10T12:38:31;16.90;99.90
11152;DHT22;5630;49.342;10.802;2023-05-10T12:40:58;16.90;99.90
11152;DHT22;5630;49.342;10.802;2023-05-10T12:43:24;17.00;99.90
11152;DHT22;5630;49.342;10.802;2023-05-10T12:45:50;17.10;99.90
11152;DHT22;5630;49.342;10.802;2023-05-10T12:48:15;17.10;99.90
11152;DHT22;5630;49.342;10.802;2023-05-10T12:50:41;17.20;99.90
11152;DHT22;5630;49.342;10.802;2023-05-10T12:53:07;17.20;99.90
11152;DHT22;5630;49.342;10.802;2023-05-10T12:55:32;17.10;99.90
11152;DHT22;5630;49.342;10.802;2023-05-10T12:57:58;17.00;99.90
11152;DHT22;5630;49.342;10.802;2023-05-10T13:00:23;17.00;99.90
11152;DHT22;5630;49.342;10.802;2023-05-10T13:02:49;16.90;99.90
11152;DHT22;5630;49.342;10.802;2023-05-10T13:05:14;17.10;99.90
11152;DHT22;5630;49.342;10.802;2023-05-10T13:07:40;17.00;99.90
11152;DHT22;5630;49.342;10.802;2023-05-10T13:10:06;16.80;99.90
11152;DHT22;5630;49.342;10.802;2023-05-10T13:12:32;16.80;99.90
11152;DHT22;5630;49.342;10.802;2023-05-10T13:14:58;16.80;99.90
11152;DHT22;5630;49.342;10.802;2023-05-10T13:17:25;16.80;99.90
11152;DHT22;5630;49.342;10.802;2023-05-10T13:19:50;16.70;99.90
11152;DHT22;5630;49.342;10.802;2023-05-10T13:22:16;16.70;99.90
11152;DHT22;5630;49.342;10.802;2023-05-10T13:24:42;16.70;99.90
11152;DHT22;5630;49.342;10.802;2023-05-10T13:27:08;16.50;99.90
11152;DHT22;5630;49.342;10.802;2023-05-10T13:29:33;16.50;99.90
11152;DHT22;5630;49.342;10.802;2023-05-10T13:31:59;16.60;99.90
11152;DHT22;5630;49.342;10.802;2023-05-10T13:34:25;16.60;99.90
11152;DHT22;5630;49.342;10.802;2023-05-10T13:36:51;16.60;99.90
11152;DHT22;5630;49.342;10.802;2023-05-10T13:39:18;16.60;99.90
11152;DHT22;5630;49.342;10.802;2023-05-10T13:41:43;16.50;99.90
11152;DHT22;5630;49.342;10.802;2023-05-10T13:44:11;16.50;99.90
11152;DHT22;5630;49.342;10.802;2023-05-10T13:46:37;16.30;99.90
11152;DHT22;5630;49.342;10.802;2023-05-10T13:49:03;16.40;99.90
11152;DHT22;5630;49.342;10.802;2023-05-10T13:51:29;16.50;99.90
11152;DHT22;5630;49.342;10.802;2023-05-10T13:53:54;16.50;99.90
11152;DHT22;5630;49.342;10.802;2023-05-10T13:56:20;16.60;99.90
11152;DHT22;5630;49.342;10.802;2023-05-10T13:58:46;16.60;99.90
11152;DHT22;5630;49.342;10.802;2023-05-10T14:01:11;16.60;99.90
11152;DHT22;5630;49.342;10.802;2023-05-10T14:03:37;16.50;99.90
11152;DHT22;5630;49.342;10.802;2023-05-10T14:06:03;16.40;99.90
11152;DHT22;5630;49.342;10.802;2023-05-10T14:08:28;16.50;99.90
11152;DHT22;5630;49.342;10.802;2023-05-10T14:10:54;16.60;99.90
11152;DHT22;5630;49.342;10.802;2023-05-10T14:13:21;16.70;99.90
11152;DHT22;5630;49.342;10.802;2023-05-10T14:15:47;16.80;99.90
11152;DHT22;5630;49.342;10.802;2023-05-10T14:18:12;16.80;99.90
11152;DHT22;5630;49.342;10.802;2023-05-10T14:20:38;16.70;99.90
11152;DHT22;5630;49.342;10.802;2023-05-10T14:23:04;16.80;99.90
11152;DHT22;5630;49.342;10.802;2023-05-10T14:25:29;16.90;99.90
11152;DHT22;5630;49.342;10.802;2023-05-10T14:27:55;17.00;99.90
11152;DHT22;5630;49.342;10.802;2023-05-10T14:30:20;17.00;99.90
11152;DHT22;5630;49.342;10.802;2023-05-10T14:32:46;17.00;99.90
11152;DHT22;5630;49.342;10.802;2023-05-10T14:35:11;17.10;99.90
11152;DHT22;5630;49.342;10.802;2023-05-10T14:37:38;17.20;99.90
11152;DHT22;5630;49.342;10.802;2023-05-10T14:40:04;17.20;99.90
11152;DHT22;5630;49.342;10.802;2023-05-10T14:42:30;17.10;99.90
11152;DHT22;5630;49.342;10.802;2023-05-10T14:44:56;17.10;99.90
11152;DHT22;5630;49.342;10.802;2023-05-10T14:47:22;16.90;99.90
11152;DHT22;5630;49.342;10.802;2023-05-10T14:49:47;16.60;99.90
11152;DHT22;5630;49.342;10.802;2023-05-10T14:52:13;16.50;99.90
11152;DHT22;5630;49.342;10.802;2023-05-10T14:54:39;16.30;99.90
11152;DHT22;5630;49.342;10.802;2023-05-10T14:57:06;16.20;99.90
11152;DHT22;5630;49.342;10.802;2023-05-10T14:59:32;16.00;99.90
11152;DHT22;5630;49.342;10.802;2023-05-10T15:01:58;15.90;99.90
11152;DHT22;5630;49.342;10.802;2023-05-10T15:04:23;15.80;99.90
11152;DHT22;5630;49.342;10.802;2023-05-10T15:06:49;15.80;99.90
11152;DHT22;5630;49.342;10.802;2023-05-10T15:09:14;15.70;99.90
11152;DHT22;5630;49.342;10.802;2023-05-10T15:11:41;15.60;99.90
11152;DHT22;5630;49.342;10.802;2023-05-10T15:14:07;15.50;99.90
11152;DHT22;5630;49.342;10.802;2023-05-10T15:16:33;15.50;99.90
11152;DHT22;5630;49.342;10.802;2023-05-10T15:18:58;15.50;99.90
11152;DHT22;5630;49.342;10.802;2023-05-10T15:21:24;15.50;99.90
11152;DHT22;5630;49.342;10.802;2023-05-10T15:23:49;15.30;99.90
11152;DHT22;5630;49.342;10.802;2023-05-10T15:26:15;15.30;99.90
11152;DHT22;5630;49.342;10.802;2023-05-10T15:28:40;15.00;99.90
11152;DHT22;5630;49.342;10.802;2023-05-10T15:31:06;14.80;99.90
11152;DHT22;5630;49.342;10.802;2023-05-10T15:33:31;14.80;99.90
11152;DHT22;5630;49.342;10.802;2023-05-10T15:35:57;14.60;99.90
11152;DHT22;5630;49.342;10.802;2023-05-10T15:38:23;14.60;99.90
11152;DHT22;5630;49.342;10.802;2023-05-10T15:40:48;14.70;99.90
11152;DHT22;5630;49.342;10.802;2023-05-10T15:43:14;14.50;99.90
11152;DHT22;5630;49.342;10.802;2023-05-10T15:45:40;14.30;99.90
11152;DHT22;5630;49.342;10.802;2023-05-10T15:48:05;14.30;99.90
11152;DHT22;5630;49.342;10.802;2023-05-10T15:50:31;14.30;99.90
11152;DHT22;5630;49.342;10.802;2023-05-10T15:52:57;14.20;99.90